Time;durP1;ratioP1;P1;durP2;ratioP2;P2;SDS_P1;SDS_P2;PMS_P1;PMS_P2;Temp;Humidity;BMP_temperature;BMP_pressure;BME280_temperature;BME280_humidity;BME280_pressure;Samples;Min_cycle;Max_cycle;Signal;HPM_P1;HPM_P2
2022/05/22 00:01:07;;;;;;;23.98;9.57;;;;;;;8.82;100.00;101889.41;10439365;28;20033;-77
2022/05/22 00:06:08;;;;;;;18.48;9.73;;;;;;;8.80;100.00;101891.50;10458690;28;20467;-77
2022/05/22 00:11:08;;;;;;;22.70;9.75;;;;;;;8.77;100.00;101894.72;10439028;28;20033;-77
2022/05/22 00:21:28;;;;;;;23.85;8.68;;;;;;;8.63;100.00;101871.13;10458043;28;20052;-77
2022/05/22 00:26:28;;;;;;;19.05;9.40;;;;;;;8.66;100.00;101882.50;10456960;28;20033;-77
2022/05/22 00:31:29;;;;;;;14.80;7.82;;;;;;;8.61;100.00;101885.03;10422338;28;20040;-78
2022/05/22 00:36:29;;;;;;;20.52;7.65;;;;;;;8.54;100.00;101876.00;10454830;28;20041;-77
2022/05/22 00:41:30;;;;;;;19.48;8.38;;;;;;;8.36;100.00;101862.94;10463993;28;20090;-77
2022/05/22 00:46:31;;;;;;;16.92;8.15;;;;;;;8.33;100.00;101871.59;10477993;28;20071;-77
2022/05/22 00:51:37;;;;;;;19.00;8.73;;;;;;;8.22;100.00;101881.31;10472011;28;20458;-76
2022/05/22 00:56:43;;;;;;;16.77;7.88;;;;;;;8.16;100.00;101873.09;10425246;28;20162;-77
2022/05/22 01:01:43;;;;;;;13.48;7.00;;;;;;;8.05;100.00;101863.63;10450211;28;20036;-77
2022/05/22 01:06:44;;;;;;;17.02;8.77;;;;;;;8.03;100.00;101865.75;10465806;28;20060;-76
2022/05/22 01:11:44;;;;;;;14.48;7.53;;;;;;;7.96;100.00;101873.13;10454260;28;20452;-76
2022/05/22 01:16:45;;;;;;;16.00;7.57;;;;;;;7.92;100.00;101861.75;10454120;28;20464;-77
2022/05/22 01:22:02;;;;;;;16.08;7.35;;;;;;;7.75;100.00;101857.75;10456260;28;20041;-76
2022/05/22 01:27:05;;;;;;;20.08;8.55;;;;;;;7.73;100.00;101865.34;10422759;28;20040;-77
2022/05/22 01:32:06;;;;;;;18.27;8.63;;;;;;;7.58;100.00;101841.72;10461833;28;20060;-77
2022/05/22 01:37:07;;;;;;;18.77;7.88;;;;;;;7.66;100.00;101854.38;10495273;28;20033;-77
2022/05/22 01:42:07;;;;;;;17.23;8.43;;;;;;;7.57;100.00;101866.63;10504889;28;20045;-77
2022/05/22 01:47:08;;;;;;;13.60;7.40;;;;;;;7.57;100.00;101883.91;10469906;28;20072;-77
2022/05/22 01:52:08;;;;;;;19.52;8.13;;;;;;;7.50;100.00;101884.94;10463725;28;20037;-76
2022/05/22 01:57:09;;;;;;;15.30;7.40;;;;;;;7.46;100.00;101888.09;10444453;28;20041;-78
2022/05/22 02:02:09;;;;;;;14.15;7.47;;;;;;;7.40;100.00;101877.13;10444785;28;20029;-78
2022/05/22 02:12:30;;;;;;;16.08;9.15;;;;;;;7.34;100.00;101877.94;10461418;28;20044;-77
2022/05/22 02:17:30;;;;;;;17.85;8.23;;;;;;;7.28;100.00;101883.22;10460317;28;20041;-77
2022/05/22 02:22:30;;;;;;;24.02;9.63;;;;;;;7.18;100.00;101858.13;10461850;28;20067;-77
2022/05/22 02:27:31;;;;;;;14.60;8.70;;;;;;;7.23;100.00;101868.47;10442237;28;20465;-77
2022/05/22 02:32:31;;;;;;;13.10;7.72;;;;;;;7.20;100.00;101860.66;10460749;28;20037;-77
2022/05/22 02:37:39;;;;;;;19.98;8.20;;;;;;;7.14;100.00;101856.84;10443541;28;20040;-77
2022/05/22 02:42:41;;;;;;;16.60;9.07;;;;;;;7.12;100.00;101860.88;10444278;28;20072;-77
2022/05/22 02:47:41;;;;;;;16.70;8.20;;;;;;;7.05;100.00;101853.47;10436443;28;20040;-78
2022/05/22 02:52:42;;;;;;;13.10;8.05;;;;;;;6.98;100.00;101841.66;10489407;28;20056;-78
2022/05/22 02:57:42;;;;;;;16.48;9.07;;;;;;;6.88;100.00;101835.72;10459252;28;20154;-77
2022/05/22 03:02:43;;;;;;;17.27;9.10;;;;;;;6.94;100.00;101831.31;10459411;28;20053;-77
2022/05/22 03:07:44;;;;;;;17.65;10.02;;;;;;;6.87;100.00;101820.38;10458773;28;20036;-77
2022/05/22 03:12:44;;;;;;;17.48;9.68;;;;;;;6.92;100.00;101826.06;10460266;28;20033;-77
2022/05/22 03:17:45;;;;;;;16.70;9.65;;;;;;;6.88;100.00;101824.78;10460256;28;20067;-78
2022/05/22 03:22:45;;;;;;;19.30;11.88;;;;;;;6.85;100.00;101817.81;10459883;28;20043;-78
2022/05/22 03:27:46;;;;;;;20.15;12.50;;;;;;;6.84;100.00;101820.75;10498480;28;20075;-78
2022/05/22 03:32:46;;;;;;;27.90;14.43;;;;;;;6.74;100.00;101806.63;10499526;28;20041;-77
2022/05/22 03:37:47;;;;;;;31.85;14.85;;;;;;;6.80;100.00;101808.53;10482330;28;20480;-77
2022/05/22 03:42:47;;;;;;;30.65;14.40;;;;;;;6.79;100.00;101804.13;10482226;28;20040;-77
2022/05/22 03:47:48;;;;;;;27.90;13.95;;;;;;;6.94;100.00;101806.69;10498909;28;20467;-78
2022/05/22 03:52:48;;;;;;;22.65;14.45;;;;;;;6.86;100.00;101788.56;10498322;28;20036;-77
2022/05/22 03:57:49;;;;;;;30.02;16.13;;;;;;;6.99;100.00;101798.72;10484024;28;20044;-77
2022/05/22 04:02:49;;;;;;;27.65;13.98;;;;;;;6.96;100.00;101794.47;10453339;28;20385;-78
2022/05/22 04:07:50;;;;;;;29.92;16.10;;;;;;;7.06;100.00;101789.44;10439260;28;20033;-77
2022/05/22 04:12:50;;;;;;;24.73;13.15;;;;;;;7.10;100.00;101783.56;10439907;28;20036;-78
2022/05/22 04:17:51;;;;;;;28.85;12.02;;;;;;;7.24;100.00;101808.00;10456191;28;20390;-76
2022/05/22 04:28:10;;;;;;;19.42;11.75;;;;;;;7.37;100.00;101806.31;10455587;28;20036;-76
2022/05/22 04:33:11;;;;;;;24.42;12.90;;;;;;;7.50;100.00;101800.84;10471722;28;20044;-77
2022/05/22 04:38:11;;;;;;;19.40;11.20;;;;;;;7.66;100.00;101803.16;10438255;28;20040;-77
2022/05/22 04:43:12;;;;;;;21.67;10.60;;;;;;;7.75;100.00;101795.56;10454322;28;20156;-78
2022/05/22 04:48:12;;;;;;;23.27;11.25;;;;;;;7.94;100.00;101798.47;10456721;28;20523;-80
2022/05/22 04:53:13;;;;;;;20.48;10.35;;;;;;;8.08;100.00;101800.13;10438418;28;20037;-77
2022/05/22 04:58:16;;;;;;;21.70;10.90;;;;;;;8.19;100.00;101810.44;10484436;28;20159;-77
2022/05/22 05:03:16;;;;;;;17.20;10.32;;;;;;;8.22;100.00;101788.03;10452513;28;20033;-77
2022/05/22 05:08:17;;;;;;;18.50;10.45;;;;;;;8.45;100.00;101803.19;10453745;28;20037;-77
2022/05/22 05:13:18;;;;;;;20.85;10.05;;;;;;;8.57;100.00;101787.72;10456151;28;20029;-77
2022/05/22 05:18:18;;;;;;;27.65;11.43;;;;;;;8.72;100.00;101792.09;10456331;28;20033;-76
2022/05/22 05:23:19;;;;;;;33.80;12.32;;;;;;;8.89;100.00;101794.09;10456383;28;20577;-77
2022/05/22 05:28:19;;;;;;;21.05;10.45;;;;;;;9.03;100.00;101796.75;10485809;28;20117;-77
2022/05/22 05:33:20;;;;;;;20.10;10.32;;;;;;;8.92;100.00;101743.38;10495564;28;20029;-77
2022/05/22 05:38:20;;;;;;;21.30;9.98;;;;;;;9.42;100.00;101790.13;10477738;28;20071;-77
2022/05/22 05:43:21;;;;;;;23.00;11.95;;;;;;;9.71;100.00;101793.25;10494377;28;20462;-77
2022/05/22 05:48:21;;;;;;;21.23;10.23;;;;;;;10.06;100.00;101798.19;10461983;28;20036;-77
2022/05/22 05:53:22;;;;;;;21.05;10.10;;;;;;;10.40;100.00;101809.72;10494482;28;20044;-77
2022/05/22 05:58:23;;;;;;;14.00;8.68;;;;;;;10.76;100.00;101792.28;10496635;28;20039;-75
2022/05/22 06:03:23;;;;;;;23.70;7.82;;;;;;;10.99;100.00;101779.66;10494784;28;20033;-76
2022/05/22 06:08:24;;;;;;;15.23;7.20;;;;;;;11.42;100.00;101795.94;10494999;28;20033;-76
2022/05/22 06:13:24;;;;;;;17.48;7.97;;;;;;;11.73;100.00;101790.34;10496493;28;20131;-76
2022/05/22 06:18:25;;;;;;;13.13;6.60;;;;;;;11.95;100.00;101776.78;10486679;28;20496;-77
2022/05/22 06:23:25;;;;;;;15.98;7.28;;;;;;;12.28;100.00;101773.41;10453386;28;20033;-77
2022/05/22 06:28:26;;;;;;;17.80;6.40;;;;;;;12.47;100.00;101757.50;10444203;28;20493;-77
2022/05/22 06:33:27;;;;;;;18.65;6.85;;;;;;;12.80;100.00;101772.50;10461371;28;20044;-78
2022/05/22 06:43:49;;;;;;;18.00;7.43;;;;;;;13.11;100.00;101768.34;10459896;28;20040;-76
2022/05/22 06:48:50;;;;;;;20.17;7.35;;;;;;;13.19;100.00;101769.84;10474493;28;20041;-79
2022/05/22 06:53:50;;;;;;;25.10;9.43;;;;;;;13.61;100.00;101775.03;10474281;28;20029;-77
2022/05/22 06:58:51;;;;;;;17.50;8.07;;;;;;;13.89;100.00;101761.06;10482168;28;20036;-77
2022/05/22 07:03:51;;;;;;;15.50;6.63;;;;;;;13.88;100.00;101770.44;10484134;28;20610;-75
2022/05/22 07:08:52;;;;;;;11.65;4.60;;;;;;;13.85;100.00;101768.19;10470789;28;20033;-77
2022/05/22 07:13:52;;;;;;;11.70;5.28;;;;;;;14.08;100.00;101766.31;10483198;28;20055;-77
2022/05/22 07:18:53;;;;;;;14.52;4.82;;;;;;;14.33;100.00;101769.41;10470990;28;20057;-77
2022/05/22 07:23:53;;;;;;;14.48;5.47;;;;;;;14.55;100.00;101765.75;10473253;28;20817;-75
2022/05/22 07:28:54;;;;;;;18.77;5.72;;;;;;;14.63;100.00;101765.34;10475939;28;20045;-80
2022/05/22 07:33:55;;;;;;;15.23;5.30;;;;;;;14.58;100.00;101754.22;10483227;28;20051;-77
2022/05/22 07:38:55;;;;;;;17.95;5.35;;;;;;;14.29;100.00;101762.69;10460554;28;20037;-78
2022/05/22 07:43:56;;;;;;;13.43;4.90;;;;;;;14.92;100.00;101759.53;10483104;28;20083;-75
2022/05/22 07:48:56;;;;;;;12.07;5.90;;;;;;;15.29;100.00;101761.56;10472407;28;20052;-78
2022/05/22 07:53:57;;;;;;;10.45;4.30;;;;;;;15.80;100.00;101752.81;10473018;28;20041;-78
2022/05/22 07:58:57;;;;;;;14.88;5.28;;;;;;;16.02;100.00;101756.28;10452955;28;20048;-77
2022/05/22 08:03:58;;;;;;;13.05;4.65;;;;;;;16.22;100.00;101755.53;10489563;28;20033;-79
2022/05/22 08:08:58;;;;;;;11.95;4.07;;;;;;;16.12;100.00;101758.25;10457047;28;20028;-82
2022/05/22 08:13:59;;;;;;;15.27;4.32;;;;;;;16.04;100.00;101758.75;10476940;28;20044;-80
2022/05/22 08:19:00;;;;;;;12.23;4.00;;;;;;;16.43;100.00;101759.22;10497283;28;20108;-81
2022/05/22 08:24:00;;;;;;;8.35;3.88;;;;;;;16.88;100.00;101754.09;10477770;28;20458;-83
2022/05/22 08:29:00;;;;;;;10.48;4.80;;;;;;;17.11;100.00;101744.38;10457161;28;20040;-82
2022/05/22 08:34:02;;;;;;;11.38;3.38;;;;;;;17.51;100.00;101739.94;10456590;28;20029;-80
2022/05/22 08:39:03;;;;;;;12.77;3.58;;;;;;;17.77;100.00;101735.16;10456460;28;20045;-81
2022/05/22 08:44:10;;;;;;;13.23;3.72;;;;;;;17.37;100.00;101741.63;10438507;28;20108;-79
2022/05/22 08:49:19;;;;;;;10.20;3.38;;;;;;;16.98;100.00;101744.94;10490223;28;20086;-79
2022/05/22 08:54:26;;;;;;;12.40;3.20;;;;;;;16.90;100.00;101743.53;10491039;28;20036;-80
2022/05/22 08:59:32;;;;;;;10.82;3.45;;;;;;;17.59;100.00;101731.03;10468016;28;20108;-79
2022/05/22 09:04:35;;;;;;;13.70;3.75;;;;;;;17.68;100.00;101743.25;10495764;28;20477;-80
2022/05/22 09:09:37;;;;;;;15.20;6.10;;;;;;;17.35;100.00;101730.75;10496319;28;20508;-80
2022/05/22 09:14:41;;;;;;;11.50;3.50;;;;;;;17.59;99.80;101732.94;10474281;28;20040;-80
2022/05/22 09:19:51;;;;;;;13.98;4.82;;;;;;;18.03;99.78;101726.75;10495086;28;20119;-81
2022/05/22 09:31:12;;;;;;;9.73;3.80;;;;;;;18.50;92.68;101714.25;10412273;28;20056;-80
2022/05/22 09:36:40;;;;;;;9.25;3.28;;;;;;;18.46;97.82;101724.31;10466237;28;20036;-81
2022/05/22 09:41:53;;;;;;;8.45;2.97;;;;;;;17.60;97.78;101645.53;10457734;28;20566;-79
2022/05/22 09:47:05;;;;;;;8.05;2.53;;;;;;;17.69;100.00;101713.44;10457411;28;20042;-78
2022/05/22 09:52:22;;;;;;;7.65;3.35;;;;;;;18.38;97.82;101702.66;10495143;28;20048;-82
2022/05/22 09:57:53;;;;;;;11.77;2.30;;;;;;;19.22;93.89;101695.06;10467116;28;20067;-82
2022/05/22 10:03:15;;;;;;;8.63;1.88;;;;;;;19.44;85.00;101666.69;10443640;28;20040;-80
2022/05/22 10:09:00;;;;;;;7.90;2.10;;;;;;;19.08;87.59;101669.81;10497300;28;20051;-79
2022/05/22 10:14:19;;;;;;;5.70;1.67;;;;;;;18.59;90.73;101673.50;10419631;28;20488;-77
2022/05/22 10:19:38;;;;;;;10.00;3.03;;;;;;;18.50;91.44;101675.22;10493887;28;20427;-77
2022/05/22 10:25:00;;;;;;;6.55;1.92;;;;;;;18.68;89.16;101643.88;10500603;28;20655;-77
2022/05/22 10:30:11;;;;;;;6.80;3.22;;;;;;;19.13;88.19;101639.06;10498376;28;20055;-79
2022/05/22 10:35:28;;;;;;;10.93;2.33;;;;;;;19.73;83.91;101635.09;10446576;28;20044;-79
2022/05/22 10:42:44;;;;;;;7.90;2.15;;;;;;;20.45;80.22;101615.41;10492911;28;20052;-80
2022/05/22 10:45:49;;;;;;;9.65;1.83;;;;;;;20.95;78.45;101609.28;10483509;28;20062;-77
2022/05/22 10:51:11;;;;;;;5.80;1.38;;;;;;;20.83;76.98;101601.38;10494437;28;20025;-75
2022/05/22 10:56:13;;;;;;;9.18;1.83;;;;;;;21.04;81.18;101618.63;10480933;28;20044;-73
2022/05/22 11:01:34;;;;;;;8.73;1.88;;;;;;;21.01;79.87;101613.66;10489267;28;20079;-81
2022/05/22 11:06:58;;;;;;;8.60;2.47;;;;;;;21.45;79.41;101606.69;10381121;27;20040;-81
2022/05/22 11:12:11;;;;;;;6.88;2.00;;;;;;;22.10;74.20;101579.56;10429483;28;20051;-77
2022/05/22 11:17:38;;;;;;;9.48;2.85;;;;;;;21.86;72.60;101515.34;10375245;28;20040;-83
2022/05/22 11:23:06;;;;;;;17.38;3.53;;;;;;;22.27;72.70;101582.53;10348666;28;20122;-78
2022/05/22 11:28:41;;;;;;;6.85;1.70;;;;;;;21.45;74.65;101584.28;10379838;28;20040;-76
2022/05/22 11:34:03;;;;;;;7.25;2.58;;;;;;;21.37;75.88;101582.19;10362805;28;20072;-83
2022/05/22 11:39:09;;;;;;;6.40;2.17;;;;;;;20.65;76.56;101589.09;10505464;28;20036;-83
2022/05/22 11:44:16;;;;;;;11.35;2.38;;;;;;;20.06;79.93;101587.75;10493926;28;20040;-80
2022/05/22 11:49:29;;;;;;;;;;;;;;;20.93;75.19;101561.19;10473957;28;20109;-77
2022/05/22 11:54:38;;;;;;;8.38;2.17;;;;;;;21.07;78.86;101562.03;10491568;28;19931;-83
2022/05/22 12:00:08;;;;;;;8.43;2.47;;;;;;;20.41;76.13;101552.00;10487227;28;20040;-84
2022/05/22 12:05:43;;;;;;;6.93;1.70;;;;;;;20.59;79.08;101556.75;10491951;28;20056;-81
2022/05/22 12:11:19;;;;;;;7.25;1.67;;;;;;;21.85;71.33;101519.28;10490581;28;20041;-72
2022/05/22 12:16:31;;;;;;;8.90;2.40;;;;;;;23.42;69.97;101514.69;10490277;28;20072;-77
2022/05/22 12:21:41;;;;;;;8.02;2.42;;;;;;;24.34;61.71;101489.31;10471491;28;20051;-83
2022/05/22 12:26:41;;;;;;;6.97;1.40;;;;;;;23.85;63.32;101500.75;10491989;28;20032;-84
2022/05/22 12:31:47;;;;;;;8.13;1.80;;;;;;;25.41;63.58;101504.41;10439998;28;20048;-80
2022/05/22 12:36:48;;;;;;;5.93;1.42;;;;;;;26.02;59.29;101483.44;10478590;28;20033;-82
2022/05/22 12:42:01;;;;;;;6.43;1.67;;;;;;;26.26;58.62;101460.97;10493350;28;20032;-78
2022/05/22 12:47:09;;;;;;;8.13;1.85;;;;;;;27.03;51.36;101443.47;10475087;28;20041;-78
2022/05/22 12:52:26;;;;;;;6.78;2.13;;;;;;;27.25;54.62;101467.66;10454316;28;20044;-79
2022/05/22 12:57:26;;;;;;;5.32;1.52;;;;;;;27.53;51.48;101453.63;10456834;28;20037;-83
2022/05/22 13:02:42;;;;;;;4.93;2.00;;;;;;;26.51;50.90;101459.03;10454931;28;20029;-82
2022/05/22 13:07:43;;;;;;;7.68;2.03;;;;;;;24.36;55.85;101470.13;10502967;28;20075;-84
2022/05/22 13:12:44;;;;;;;5.47;1.60;;;;;;;22.74;57.36;101472.78;10479507;28;20500;-82
2022/05/22 13:17:53;;;;;;;6.80;1.45;;;;;;;21.90;64.81;101496.75;10497611;28;20071;-83
2022/05/22 13:23:04;;;;;;;8.93;2.25;;;;;;;21.42;69.12;101498.09;10463317;28;20044;-84
2022/05/22 13:28:04;;;;;;;6.95;1.35;;;;;;;21.15;68.79;101480.13;10496180;28;20032;-82
2022/05/22 13:33:06;;;;;;;7.00;1.75;;;;;;;20.95;67.80;101458.16;10463499;28;20057;-84
2022/05/22 13:38:10;;;;;;;5.03;1.33;;;;;;;21.01;69.58;101473.69;10462050;28;20029;-82
2022/05/22 13:43:11;;;;;;;5.07;1.40;;;;;;;21.06;67.33;101453.97;10446038;28;20041;-83
2022/05/22 13:48:33;;;;;;;5.55;1.27;;;;;;;21.16;70.09;101464.97;10461752;28;20049;-82
2022/05/22 13:53:44;;;;;;;6.60;1.30;;;;;;;21.08;71.07;101468.50;10462056;28;20041;-82
2022/05/22 13:58:46;;;;;;;6.05;1.42;;;;;;;20.99;70.41;101436.78;10461720;28;20037;-81
2022/05/22 14:03:52;;;;;;;8.32;1.35;;;;;;;21.26;68.09;101440.72;10461607;28;20036;-82
2022/05/22 14:08:54;;;;;;;;;;;;;;;21.74;67.21;101423.41;10446394;28;20053;-82
2022/05/22 14:14:03;;;;;;;3.13;1.00;;;;;;;22.06;65.83;101415.91;10460771;28;19932;-84
2022/05/22 14:19:08;;;;;;;8.23;1.40;;;;;;;21.74;65.68;101423.41;10460880;28;20523;-80
2022/05/22 14:29:44;;;;;;;7.63;1.52;;;;;;;21.11;70.00;101425.91;10461427;28;20025;-81
2022/05/22 14:34:46;;;;;;;6.50;1.25;;;;;;;20.74;70.60;101421.34;10443968;28;20057;-81
2022/05/22 14:39:51;;;;;;;6.07;1.55;;;;;;;20.87;73.05;101422.47;10461829;28;20041;-81
2022/05/22 14:44:52;;;;;;;5.05;1.10;;;;;;;21.31;69.75;101409.78;10459238;28;20055;-79
2022/05/22 14:49:53;;;;;;;3.80;1.15;;;;;;;21.04;69.33;101347.09;10459878;28;20056;-81
2022/05/22 14:55:24;;;;;;;8.13;1.50;;;;;;;22.57;68.83;101389.31;10425705;28;20037;-80
2022/05/22 15:00:30;;;;;;;8.45;1.50;;;;;;;23.99;63.75;101376.84;10457513;28;20037;-81
2022/05/22 15:05:46;;;;;;;5.77;1.17;;;;;;;24.76;58.53;101360.91;10459441;28;20534;-79
2022/05/22 15:10:47;;;;;;;;;;;;;;;25.80;58.50;101369.78;10445232;28;20045;-79
2022/05/22 15:15:47;;;;;;;5.82;1.20;;;;;;;26.70;54.45;101350.38;10476298;28;19923;-82
2022/05/22 15:20:57;;;;;;;6.85;1.58;;;;;;;26.34;56.08;101349.97;10458291;28;20330;-79
2022/05/22 15:25:58;;;;;;;6.85;1.20;;;;;;;26.42;52.33;101321.97;10443645;28;20045;-80
2022/05/22 15:30:58;;;;;;;4.50;1.00;;;;;;;26.70;51.02;101317.31;10474960;28;20319;-79
2022/05/22 15:36:28;;;;;;;5.20;1.15;;;;;;;27.36;53.94;101326.63;10460522;28;20461;-79
2022/05/22 15:41:32;;;;;;;1.85;0.82;;;;;;;27.66;49.70;101298.00;10457734;28;20048;-80
2022/05/22 15:46:33;;;;;;;4.35;1.00;;;;;;;27.40;49.87;101293.63;10459856;28;20068;-79
2022/05/22 15:51:35;;;;;;;4.45;1.20;;;;;;;27.34;49.92;101286.59;10499109;28;20033;-78
2022/05/22 15:56:36;;;;;;;4.97;0.90;;;;;;;27.81;48.39;101280.25;10478372;28;20059;-76
2022/05/22 16:01:37;;;;;;;5.20;0.88;;;;;;;27.65;49.12;101279.41;10498347;28;20064;-83
2022/05/22 16:06:37;;;;;;;6.45;1.48;;;;;;;27.32;48.27;101283.31;10482275;28;20059;-85
2022/05/22 16:11:38;;;;;;;3.10;1.23;;;;;;;26.57;48.34;101281.78;10499756;28;20033;-83
2022/05/22 16:16:46;;;;;;;5.55;1.13;;;;;;;26.32;50.01;101284.56;10475032;28;20111;-82
2022/05/22 16:21:50;;;;;;;4.10;0.80;;;;;;;25.54;50.57;101283.44;10494577;28;20033;-82
2022/05/22 16:26:50;;;;;;;5.13;1.27;;;;;;;24.41;51.79;101270.13;10479301;28;20047;-87
2022/05/22 16:31:51;;;;;;;5.50;0.88;;;;;;;24.03;55.03;101270.97;10498312;28;20033;-84
2022/05/22 16:36:52;;;;;;;3.90;0.90;;;;;;;24.32;54.11;101256.09;10496400;28;20050;-82
2022/05/22 16:41:52;;;;;;;5.00;0.98;;;;;;;23.88;55.22;101269.53;10478921;28;20040;-82
2022/05/22 16:46:54;;;;;;;4.30;1.35;;;;;;;23.48;54.08;101240.81;10497713;28;20044;-82
2022/05/22 16:57:14;;;;;;;6.15;1.20;;;;;;;23.01;56.44;101258.38;10493932;28;20104;-83
2022/05/22 17:02:14;;;;;;;3.60;0.82;;;;;;;22.63;57.38;101261.72;10467054;28;20088;-85
2022/05/22 17:07:18;;;;;;;4.30;1.70;;;;;;;21.98;59.32;101246.47;10500812;28;20040;-86
2022/05/22 17:12:19;;;;;;;4.78;1.10;;;;;;;21.24;61.45;101255.38;10492766;28;20041;-84
2022/05/22 17:17:19;;;;;;;4.60;0.98;;;;;;;20.66;65.38;101269.00;10475742;28;20029;-84
2022/05/22 17:22:25;;;;;;;3.95;1.00;;;;;;;20.20;64.11;101258.75;10471492;28;20792;-86
2022/05/22 17:27:39;;;;;;;4.23;1.03;;;;;;;19.91;65.98;101262.66;10468549;28;20504;-84
2022/05/22 17:32:41;;;;;;;3.47;1.17;;;;;;;19.64;67.44;101271.78;10457402;28;20271;-85
2022/05/22 17:37:42;;;;;;;5.13;1.30;;;;;;;19.43;70.37;101274.09;10461345;28;20047;-84
2022/05/22 17:42:42;;;;;;;4.72;1.02;;;;;;;19.17;72.31;101281.22;10436765;28;20043;-83
2022/05/22 17:47:43;;;;;;;4.43;1.30;;;;;;;18.77;72.68;101267.53;10466041;28;20040;-82
2022/05/22 17:52:43;;;;;;;5.65;1.08;;;;;;;18.59;73.96;101266.38;10461831;28;20037;-85
2022/05/22 17:57:44;;;;;;;5.97;1.05;;;;;;;18.46;75.95;101267.09;10471055;28;20049;-85
2022/05/22 18:02:44;;;;;;;2.72;1.08;;;;;;;18.29;75.59;101262.84;10478355;28;20029;-86
2022/05/22 18:07:45;;;;;;;2.97;1.10;;;;;;;18.24;79.06;101259.28;10478895;28;20055;-85
2022/05/22 18:18:05;;;;;;;3.85;0.93;;;;;;;18.08;79.99;101261.41;10469628;28;20036;-86
2022/05/22 18:23:06;;;;;;;6.53;1.17;;;;;;;17.99;80.20;101260.41;10478083;28;20079;-85
2022/05/22 18:28:28;;;;;;;4.35;0.90;;;;;;;17.88;85.64;101256.88;10461579;28;20048;-87
2022/05/22 18:33:29;;;;;;;4.38;0.90;;;;;;;17.69;86.39;101265.97;10459633;28;20424;-77
2022/05/22 18:38:30;;;;;;;2.47;1.10;;;;;;;17.38;88.50;101237.56;10460805;28;20096;-85
2022/05/22 18:43:30;;;;;;;4.03;0.93;;;;;;;17.32;91.22;101255.41;10443351;28;20094;-86
2022/05/22 18:48:33;;;;;;;3.75;1.02;;;;;;;17.13;92.09;101247.75;10461549;28;20055;-86
2022/05/22 18:53:34;;;;;;;3.53;1.52;;;;;;;16.96;95.73;101252.91;10444136;28;20041;-84
2022/05/22 18:58:34;;;;;;;1.73;0.95;;;;;;;16.77;99.49;101249.09;10461304;28;20041;-84
2022/05/22 19:03:35;;;;;;;4.63;1.10;;;;;;;16.49;100.00;101248.69;10442268;28;20116;-81
2022/05/22 19:08:36;;;;;;;3.42;1.35;;;;;;;16.27;100.00;101233.22;10462036;28;20041;-81
2022/05/22 19:13:45;;;;;;;4.35;1.20;;;;;;;16.08;100.00;101207.16;10460381;28;20040;-84
2022/05/22 19:18:46;;;;;;;5.38;1.92;;;;;;;15.92;100.00;101200.84;10460604;28;20040;-83
2022/05/22 19:23:47;;;;;;;5.18;2.08;;;;;;;15.74;100.00;101205.88;10458856;28;20033;-84
2022/05/22 19:28:50;;;;;;;6.22;2.08;;;;;;;15.49;100.00;101205.91;10458612;28;20053;-84
2022/05/22 19:33:51;;;;;;;2.58;1.10;;;;;;;15.25;100.00;101198.13;10457962;28;20565;-83
2022/05/22 19:38:51;;;;;;;5.57;1.60;;;;;;;15.17;100.00;101211.72;10442055;28;20068;-81
2022/05/22 19:43:59;;;;;;;5.05;1.73;;;;;;;14.93;100.00;101187.34;10457577;28;20057;-82
2022/05/22 19:49:00;;;;;;;2.90;1.13;;;;;;;14.87;100.00;101191.19;10458303;28;20029;-84
2022/05/22 19:58:35;;;;;;;2.08;1.05;;;;;;;14.79;100.00;101202.84;10458354;28;20040;-83
2022/05/22 19:59:21;;;;;;;3.92;1.40;;;;;;;14.65;100.00;101202.53;10457337;28;20040;-84
2022/05/22 20:04:21;;;;;;;4.35;1.60;;;;;;;14.50;100.00;101201.34;10459303;28;20047;-83
2022/05/22 20:09:22;;;;;;;6.35;1.38;;;;;;;14.39;100.00;101202.44;10458748;28;20075;-84
2022/05/22 20:14:22;;;;;;;3.08;1.42;;;;;;;14.25;100.00;101201.28;10456227;28;20044;-81
2022/05/22 20:19:23;;;;;;;2.72;1.10;;;;;;;14.14;100.00;101194.88;10456688;28;20525;-81
2022/05/22 20:24:25;;;;;;;2.25;1.42;;;;;;;14.02;100.00;101191.50;10458609;28;20401;-82
2022/05/22 20:29:27;;;;;;;5.47;1.85;;;;;;;14.00;100.00;101190.91;10456184;28;20040;-81
2022/05/22 20:34:27;;;;;;;5.05;1.52;;;;;;;14.00;100.00;101188.97;10456101;28;20427;-80
2022/05/22 20:39:28;;;;;;;5.18;2.35;;;;;;;13.94;100.00;101184.53;10456323;28;20049;-81
2022/05/22 20:44:43;;;;;;;4.22;1.70;;;;;;;13.87;100.00;101178.38;10456877;28;20033;-83
2022/05/22 20:49:43;;;;;;;4.85;2.13;;;;;;;13.86;100.00;101183.09;10439406;28;20122;-81
2022/05/22 20:54:44;;;;;;;4.70;2.05;;;;;;;13.79;100.00;101188.03;10455872;28;20059;-80
2022/05/22 20:59:44;;;;;;;3.80;2.05;;;;;;;13.71;100.00;101171.94;10455725;28;20044;-78
2022/05/22 21:04:46;;;;;;;4.13;1.40;;;;;;;13.63;100.00;101167.75;10455359;28;20048;-79
2022/05/22 21:09:46;;;;;;;6.38;2.33;;;;;;;13.56;100.00;101160.78;10455203;28;20470;-79
2022/05/22 21:14:50;;;;;;;7.78;2.40;;;;;;;13.48;100.00;101149.13;10467409;28;20078;-81
2022/05/22 21:19:55;;;;;;;6.10;2.70;;;;;;;13.42;100.00;101150.19;10456419;28;20033;-79
2022/05/22 21:30:15;;;;;;;5.93;2.17;;;;;;;13.26;100.00;101132.63;10456561;28;20069;-79
2022/05/22 21:35:17;;;;;;;6.03;2.38;;;;;;;13.19;100.00;101122.88;10437990;28;20041;-80
2022/05/22 21:40:18;;;;;;;3.53;2.28;;;;;;;13.17;100.00;101130.63;10454395;28;20037;-81
2022/05/22 21:45:19;;;;;;;4.93;2.97;;;;;;;13.13;100.00;101117.34;10454167;28;20044;-82
2022/05/22 21:50:20;;;;;;;6.72;2.35;;;;;;;13.08;100.00;101110.94;10453382;28;20462;-79
2022/05/22 21:55:20;;;;;;;2.60;2.03;;;;;;;13.00;100.00;101104.00;10458403;28;20037;-80
2022/05/22 22:00:27;;;;;;;5.00;2.13;;;;;;;13.06;100.00;101118.66;10462673;28;20032;-80
2022/05/22 22:05:28;;;;;;;5.45;1.75;;;;;;;12.85;100.00;101090.03;10461469;28;20045;-79
2022/05/22 22:10:29;;;;;;;3.58;2.03;;;;;;;12.91;100.00;101100.88;10462154;28;20647;-81
2022/05/22 22:15:30;;;;;;;4.45;2.63;;;;;;;12.92;100.00;101110.00;10461732;28;20455;-79
2022/05/22 22:20:30;;;;;;;4.18;1.85;;;;;;;12.86;100.00;101100.00;10461069;28;20091;-80
2022/05/22 22:25:31;;;;;;;9.93;2.45;;;;;;;12.82;100.00;101112.69;10463731;28;20033;-79
2022/05/22 22:30:31;;;;;;;4.15;2.00;;;;;;;12.66;100.00;101093.19;10460166;28;20053;-81
2022/05/22 22:35:31;;;;;;;6.85;2.10;;;;;;;12.78;100.00;101117.06;10457066;28;20033;-81
2022/05/22 22:40:32;;;;;;;7.07;2.90;;;;;;;12.78;100.00;101111.53;10463039;28;20083;-79
2022/05/22 22:45:33;;;;;;;7.82;3.63;;;;;;;12.78;100.00;101109.59;10460763;28;20037;-80
2022/05/22 22:50:33;;;;;;;8.27;4.80;;;;;;;12.82;100.00;101107.16;10460105;28;20048;-79
2022/05/22 23:00:58;;;;;;;8.27;3.33;;;;;;;12.78;100.00;101087.50;10445439;28;20072;-80
2022/05/22 23:05:58;;;;;;;7.07;3.42;;;;;;;12.83;100.00;101090.28;10459761;28;20040;-80
2022/05/22 23:10:59;;;;;;;5.15;4.10;;;;;;;12.79;100.00;101085.56;10459591;28;20041;-81
2022/05/22 23:16:00;;;;;;;5.10;3.25;;;;;;;12.77;100.00;101077.53;10443366;28;20040;-81
2022/05/22 23:21:01;;;;;;;5.00;3.58;;;;;;;12.72;100.00;101075.56;10457271;28;20033;-80
2022/05/22 23:26:03;;;;;;;6.18;3.85;;;;;;;12.68;100.00;101074.44;10458070;28;20106;-79
2022/05/22 23:31:03;;;;;;;7.25;4.00;;;;;;;12.53;100.00;101057.75;10458096;28;20029;-79
2022/05/22 23:36:05;;;;;;;9.70;4.30;;;;;;;12.54;100.00;101066.84;10442222;28;20048;-79
2022/05/22 23:41:05;;;;;;;6.38;3.80;;;;;;;12.50;100.00;101061.84;10458525;28;20053;-80
2022/05/22 23:46:06;;;;;;;6.15;3.20;;;;;;;12.43;100.00;101060.41;10459294;28;20041;-81
2022/05/22 23:51:06;;;;;;;5.10;3.15;;;;;;;12.31;100.00;101058.63;10465391;28;20068;-78
2022/05/22 23:56:07;;;;;;;5.72;3.10;;;;;;;12.21;100.00;101046.66;10495004;28;20040;-79
